Terminal Aerodrome Forecast
Issued by NWS

Home | Current Version | Previous Version | Text Only | Print | Product List | Glossary On
Versions: 1 2 3 4 5 6 7 8 9 10 11 12 13 14 15 16 17 18 19 20 21 22 23 24 25 26 27 28 29 30 31 32 33 34 35 36 37 38 39 40 41 42 43 44 45 46 47 48 49 50
000
FTUS45 KBOU 050918 AAA
TAFBJC
TAF AMD
KBJC 050918Z 0509/0606 03005KT 1/2SM -DZ FG OVC002
      TEMPO 0509/0513 1/4SM FG VV001
     FM051500 36007KT 3SM -RA BR BKN004 OVC008
     FM051900 36012KT 5SM RA BKN008 OVC012
      TEMPO 0520/0524 2SM +TSRA OVC006CB
     FM060000 33009KT 5SM -RA BR BKN010 OVC022
     FM060300 29008KT P6SM VCSH SCT020 BKN050=

USA.gov is the U.S. government's official web portal to all federal, state and local government web resources and services.